Date,TemperatureHighF,TemperatureAvgF,TemperatureLowF,DewpointHighF,DewpointAvgF,DewpointLowF,HumidityHigh,HumidityAvg,HumidityLow,PressureMaxIn,PressureMinIn,WindSpeedMaxMPH,WindSpeedAvgMPH,GustSpeedMaxMPH,PrecipitationSumIn
2013-1-6,35,28,27,14,12,9,54,49,39,25.06,25.03,6,0,6,0.00
2013-1-7,48,35,24,18,14,9,66,44,27,25.10,24.94,9,1,9,0.00
2013-1-8,51,41,25,22,18,13,68,40,29,25.26,24.91,12,2,12,0.00
2013-1-9,51,34,23,24,18,13,69,52,31,25.35,25.09,8,1,8,0.00
2013-1-10,40,29,19,24,17,11,75,62,48,25.09,24.61,5,1,5,0.00
2013-1-11,40,26,6,23,14,1,80,62,35,24.91,24.47,14,3,14,0.00
2013-1-12,20,10,3,10,3,-3,81,74,62,25.09,24.90,9,1,9,0.00
2013-1-13,16,6,-2,7,-1,-8,81,72,64,25.17,25.07,7,1,7,0.00
2013-1-14,13,6,-1,5,-2,-8,80,73,60,25.20,25.10,7,0,7,0.00
2013-1-15,33,17,-4,18,6,-10,80,64,48,25.18,25.13,7,1,7,0.00
2013-1-16,50,35,21,27,18,11,68,52,37,25.38,25.17,6,1,6,0.00
2013-1-17,48,31,20,23,17,11,74,58,33,25.48,25.28,6,1,6,0.00
2013-1-18,55,40,23,21,12,6,69,37,16,25.29,25.13,12,2,12,0.00
2013-1-19,57,46,28,14,8,3,43,22,15,25.29,25.13,11,2,11,0.00
2013-1-20,47,32,18,17,11,6,62,43,27,25.31,25.21,13,2,13,0.00
2013-1-21,54,34,14,22,11,3,78,46,17,25.29,25.13,11,2,11,0.00
2013-1-22,58,45,29,19,8,-3,42,23,12,25.22,25.10,15,2,15,0.00
2013-1-23,64,46,28,12,7,2,38,23,10,25.25,25.17,12,2,12,0.00
2013-1-24,62,44,26,27,17,8,51,35,18,25.23,25.05,18,4,18,0.00
2013-1-25,52,39,28,30,23,17,67,54,41,25.24,25.13,6,1,6,0.00
2013-1-26,54,40,27,33,27,20,78,62,42,25.16,24.89,6,1,6,0.00
2013-1-27,54,41,31,39,30,20,86,67,47,24.90,24.82,7,1,7,0.00
2013-1-28,49,34,26,31,24,16,85,67,47,24.87,24.71,14,2,14,0.00
2013-1-29,33,25,15,23,17,7,85,71,55,25.03,24.80,18,1,18,0.12
2013-1-30,40,26,8,21,13,2,80,59,37,25.03,24.89,15,2,15,0.00
2013-1-31,45,35,23,23,18,14,73,53,33,25.19,24.97,15,4,15,0.00
2013-2-1,48,33,19,29,18,14,85,58,33,25.25,25.10,13,2,13,0.00
2013-2-2,54,35,19,28,18,12,79,53,27,25.35,25.24,8,1,8,0.00
2013-2-3,46,34,22,23,16,9,64,49,37,25.31,24.99,8,1,8,0.00
2013-2-4,56,40,26,18,12,7,52,33,18,25.07,24.93,13,2,13,0.00
2013-2-5,57,43,26,24,18,8,52,37,27,25.12,24.96,9,2,9,0.00
2013-2-6,54,40,30,30,23,15,82,52,32,25.16,24.92,12,2,12,0.02
2013-2-7,45,33,22,32,21,13,85,64,36,25.23,25.10,6,1,6,0.01
2013-2-8,49,31,18,20,13,8,69,50,24,25.11,24.82,9,1,9,0.00
2013-2-9,39,29,20,25,18,8,79,63,46,24.84,24.69,12,2,12,0.00
2013-2-10,39,28,20,26,16,8,82,63,36,25.11,24.71,22,2,22,0.03
2013-2-11,29,22,14,18,13,7,79,68,55,25.14,25.05,10,1,10,0.00
2013-2-12,40,25,9,20,8,2,80,52,27,25.12,25.05,7,1,7,0.00
2013-2-13,47,33,17,19,12,2,59,42,29,25.11,24.99,13,2,13,0.00
2013-2-14,38,27,20,23,17,10,76,66,40,25.33,25.07,20,2,20,0.01
2013-2-15,43,26,15,24,14,9,81,64,31,25.32,25.26,10,1,10,0.02
2013-2-16,55,41,17,23,16,9,75,38,23,25.27,25.07,13,2,13,0.00
2013-2-17,60,47,29,15,8,2,43,23,11,25.07,24.71,19,4,19,0.00
2013-2-18,43,31,19,23,10,2,67,43,23,25.15,24.85,10,2,10,0.00
2013-2-19,39,27,16,15,10,2,58,48,33,25.16,24.90,13,1,13,0.00
2013-2-20,37,26,17,24,16,8,82,67,46,24.92,24.76,9,2,9,0.00
2013-2-21,32,22,15,22,15,10,83,76,61,24.97,24.83,6,1,6,0.22
2013-2-22,37,24,12,27,16,8,85,72,60,25.03,24.92,6,1,6,0.04
2013-2-23,42,27,13,27,17,7,83,67,53,24.95,24.75,9,2,9,0.00
2013-2-24,30,27,23,25,23,18,90,85,79,25.17,24.83,18,2,18,0.04
2013-2-25,40,22,8,27,15,4,88,75,58,25.17,24.94,7,1,7,0.12
2013-2-26,43,27,13,32,19,8,85,72,56,25.17,24.90,17,3,17,0.06
2013-2-27,50,25,14,28,13,7,78,62,40,25.27,25.16,13,1,13,0.00
2013-2-28,45,30,13,25,15,4,75,54,33,25.29,25.21,8,1,8,0.00
2013-3-1,55,36,23,32,21,14,69,55,39,25.34,25.24,7,1,7,0.00
2013-3-2,65,44,26,40,28,19,76,55,34,25.34,25.13,6,1,6,0.00
2013-3-3,65,49,37,32,26,23,63,43,24,25.13,24.80,17,2,17,0.00
2013-3-4,46,30,16,27,20,9,80,67,46,25.26,24.80,14,2,14,0.06
2013-3-5,36,23,8,23,15,3,84,71,56,25.31,25.21,8,1,8,0.02
2013-3-6,53,34,19,34,24,14,85,68,46,25.20,24.94,6,1,6,0.01
2013-3-7,62,43,28,40,28,22,81,58,28,25.07,24.96,12,2,12,0.00
2013-3-8,48,37,27,34,28,22,83,70,56,25.07,24.84,7,1,7,0.00
2013-3-9,35,32,25,32,27,17,89,83,70,25.15,24.78,13,3,13,0.18
2013-3-10,52,32,16,34,20,11,82,63,46,25.09,25.09,6,1,8,0.09
2013-3-11,56,42,31,29,23,18,83,49,28,25.21,25.21,17,4,18,0.00
2013-3-12,42,32,26,30,25,22,88,77,60,25.29,25.29,2,0,4,0.24
2013-3-13,64,42,24,42,28,21,89,61,27,0.00,40.00,11,2,12,0.01
2013-3-14,73,56,42,39,28,22,53,35,17,25.20,25.20,6,2,9,0.00
2013-3-15,75,64,50,32,25,22,38,24,15,25.01,25.01,13,3,21,0.00
2013-3-16,57,47,36,36,30,26,72,53,33,24.92,24.92,10,2,11,0.00
2013-3-17,58,43,30,36,24,13,78,51,21,24.95,24.95,13,3,16,0.00
2013-3-18,51,39,28,16,11,5,43,32,21,25.02,25.02,14,3,14,0.00
2013-3-19,58,43,24,15,7,-2,51,24,11,25.38,25.38,16,4,16,0.00
2013-3-20,53,34,18,25,18,8,74,52,33,24.86,24.86,8,1,10,0.00
2013-3-21,56,44,33,35,22,10,59,44,25,0.00,40.00,15,3,18,0.00
2013-3-22,46,33,25,28,18,7,85,57,34,25.02,25.02,17,3,17,0.00
2013-3-23,26,22,14,22,16,9,87,79,68,25.20,25.20,13,3,13,0.02
2013-3-24,36,20,4,20,11,-1,85,68,46,0.00,40.00,8,1,11,0.13
2013-3-25,42,25,16,26,15,11,83,66,45,0.00,40.00,5,1,6,0.20
2013-3-26,52,31,15,30,20,8,79,63,39,0.00,40.00,8,1,9,0.00
2013-3-27,58,40,27,38,30,22,83,67,46,0.00,40.00,5,1,6,0.01
2013-3-28,67,46,30,40,32,26,89,64,34,25.19,25.19,10,1,10,0.00
2013-3-29,68,54,37,42,32,28,72,48,26,25.20,25.12,16,2,16,0.00
2013-3-30,70,50,34,41,31,26,77,52,22,25.28,25.09,10,2,10,0.00
2013-3-31,73,51,31,42,30,23,84,51,23,25.27,25.01,11,2,11,0.00
2013-4-1,55,44,27,35,30,20,77,59,46,25.22,25.10,14,3,14,0.00
2013-4-2,42,38,36,34,32,30,89,79,68,25.20,25.14,8,1,8,0.29
2013-4-3,64,47,36,48,36,31,91,69,41,25.20,25.11,7,1,7,0.00
2013-4-4,73,55,37,46,34,29,77,47,26,25.23,25.07,9,1,9,0.00
2013-4-5,78,59,46,40,32,26,56,39,17,25.07,24.82,18,2,18,0.00
2013-4-6,70,56,41,34,27,20,46,34,22,25.04,24.94,9,2,9,0.00
2013-4-7,74,55,40,39,31,26,71,42,23,24.97,24.81,14,2,14,0.00
2013-4-8,64,46,28,39,31,24,85,57,31,24.94,24.57,27,4,27,0.01
2013-4-9,28,20,13,24,14,8,84,77,66,25.24,24.94,14,4,14,0.01
2013-4-10,35,20,6,23,12,1,84,71,55,25.22,24.96,7,1,7,0.05
2013-4-11,59,38,17,39,26,12,85,66,42,25.02,24.85,11,2,11,0.03
2013-4-12,62,46,34,42,32,26,76,60,34,25.08,24.96,20,3,20,0.00
2013-4-13,68,48,28,45,30,23,88,56,23,25.05,24.56,12,2,12,0.00
2013-4-14,51,43,33,36,21,9,79,45,20,24.86,24.65,24,4,24,0.15
2013-4-15,37,30,23,28,22,17,87,72,45,25.10,24.84,13,1,13,0.06
2013-4-16,36,29,23,28,24,19,89,83,70,25.10,24.94,0,0,0,0.03
2013-4-17,35,28,20,30,24,15,91,85,77,25.20,25.01,0,0,0,0.09
2013-4-18,49,28,13,31,17,9,87,65,44,25.20,25.14,4,0,4,0.17
2013-4-19,56,42,26,30,22,13,65,46,31,25.17,25.03,9,1,9,0.00
2013-4-20,61,47,31,37,31,23,77,54,37,25.10,25.00,9,2,9,0.00
2013-4-21,70,51,32,43,30,22,82,50,21,25.15,25.05,11,2,11,0.00
2013-4-22,61,35,23,42,27,20,86,74,45,25.35,25.00,21,2,21,0.15
2013-4-23,39,28,20,28,19,16,87,71,52,25.32,25.19,3,0,3,0.33
2013-4-24,61,40,20,36,22,14,81,53,27,25.26,25.18,10,1,10,0.00
2013-4-25,70,49,27,36,26,17,73,45,21,25.23,25.00,10,1,10,0.00
2013-4-26,72,56,36,39,26,21,61,35,17,25.28,25.10,9,1,9,0.00
2013-4-27,82,61,39,40,26,20,58,30,12,25.28,25.10,12,2,12,0.00
2013-4-28,85,68,49,35,27,20,36,23,15,25.12,24.94,12,2,12,0.00
2013-4-29,84,70,48,44,32,25,55,28,15,25.04,24.74,15,3,15,0.00
2013-4-30,69,54,35,40,34,25,86,50,23,25.12,24.76,19,3,19,0.24
2013-5-1,35,31,25,31,27,21,89,84,76,25.61,25.54,9,0,9,0.34
2013-5-2,50,36,20,35,22,15,86,61,37,25.67,25.46,7,0,7,0.39
2013-5-3,66,48,26,40,29,20,83,52,30,25.45,25.16,8,1,8,0.00
2013-5-4,64,50,32,37,31,24,76,50,32,25.29,25.18,10,2,10,0.00
2013-5-5,62,48,31,36,30,22,72,51,32,25.29,25.16,8,2,8,0.00
2013-5-6,70,55,36,40,35,28,77,50,31,25.18,25.01,10,2,10,0.00
2013-5-7,75,56,42,47,40,32,79,56,29,25.12,24.98,18,2,18,0.05
2013-5-8,66,50,41,47,42,36,89,74,44,25.19,25.06,14,2,14,0.49
2013-5-9,68,51,42,53,43,36,90,75,48,25.27,25.17,12,2,12,0.09
2013-5-10,73,56,38,51,40,33,86,57,35,25.37,25.25,11,1,11,0.00
2013-5-11,74,60,43,49,42,35,75,53,35,25.45,25.28,9,1,9,0.00
2013-5-12,84,67,47,51,40,36,70,41,21,25.31,25.17,10,2,10,0.00
2013-5-13,90,74,55,52,42,35,50,34,19,25.25,25.11,11,2,11,0.00
2013-5-14,94,73,58,53,42,34,46,33,18,25.13,25.01,16,2,16,0.00
2013-5-15,86,68,53,54,43,36,72,44,23,25.09,24.97,13,2,13,0.00
2013-5-16,88,70,51,56,46,38,78,48,21,25.06,24.89,10,2,10,0.00
2013-5-17,90,72,50,53,41,25,70,38,12,25.01,24.84,14,2,14,0.00
2013-5-18,82,67,54,48,36,23,49,32,21,25.02,24.88,18,2,18,0.00
2013-5-19,75,61,49,39,33,29,57,37,21,24.97,24.88,12,2,12,0.00
2013-5-20,72,57,48,51,42,31,85,58,38,25.11,24.96,9,2,9,0.10
2013-5-21,75,59,41,47,38,30,82,50,25,25.15,24.97,10,2,10,0.00
2013-5-22,80,60,43,49,41,31,78,51,25,25.16,24.97,14,2,14,0.04
2013-5-23,74,60,48,54,47,42,84,65,43,25.20,25.05,9,2,9,0.00
2013-5-24,84,66,45,55,46,39,88,55,22,25.10,24.99,9,2,9,0.00
2013-5-25,91,72,53,56,46,30,71,44,13,25.10,24.94,10,2,10,0.00
2013-5-26,89,70,54,50,38,29,53,33,15,25.04,24.96,12,2,12,0.00
2013-5-27,88,70,54,47,34,26,47,29,13,24.99,24.84,11,2,11,0.00
2013-5-28,84,66,49,52,42,33,66,42,24,24.97,24.69,11,2,11,0.00
2013-5-29,68,57,47,52,42,33,87,61,32,24.86,24.75,14,2,14,0.34
2013-5-30,75,62,48,39,32,26,56,34,19,24.99,24.81,16,3,16,0.00
2013-5-31,74,62,48,32,25,19,44,26,15,25.12,24.97,14,4,14,0.00
2013-6-1,78,60,45,44,37,23,65,44,26,25.29,25.13,13,2,13,0.00
2013-6-2,91,66,41,51,39,29,68,41,19,25.28,24.93,8,1,8,0.00
2013-6-3,94,73,50,51,36,29,57,31,12,25.04,24.86,15,2,15,0.00
2013-6-4,77,62,50,52,44,27,80,52,28,25.29,25.04,15,2,15,0.08
2013-6-5,68,53,47,52,45,42,87,75,54,25.31,25.21,6,1,6,0.01
2013-6-6,83,63,42,57,44,38,89,56,26,25.23,25.11,7,1,7,0.00
2013-6-7,89,68,49,52,46,38,70,47,28,25.20,24.92,8,1,8,0.00
2013-6-8,81,68,57,54,46,39,57,44,32,25.15,24.89,16,2,16,0.00
2013-6-9,98,72,47,55,45,39,78,43,17,25.16,25.00,8,1,8,0.00
2013-6-10,103,80,59,61,45,36,52,33,14,25.07,24.94,10,1,10,0.00
2013-6-11,102,82,58,57,37,25,53,25,6,25.09,24.89,12,2,12,0.00
2013-6-12,95,79,58,53,38,27,54,26,15,25.24,25.07,13,2,13,0.00
2013-6-13,83,68,56,60,54,48,77,61,41,25.23,25.00,13,2,13,0.03
2013-6-14,93,74,57,58,48,37,74,44,17,25.10,24.98,12,2,12,0.00
2013-6-15,86,69,54,55,49,43,71,50,33,25.20,25.07,7,1,7,0.00
2013-6-16,86,70,55,59,49,39,79,50,28,25.23,25.13,14,2,14,0.00
2013-6-17,90,68,52,58,48,39,72,50,27,25.27,25.13,10,2,10,0.00
2013-6-18,84,70,54,58,51,46,80,55,29,25.24,24.99,8,2,8,0.02
2013-6-19,97,74,51,58,45,30,82,44,12,25.11,24.80,19,2,19,0.00
2013-6-20,92,78,55,53,39,25,66,28,15,25.06,24.89,8,2,8,0.00
2013-6-21,97,77,58,59,44,28,55,34,13,25.04,24.89,12,2,12,0.00
2013-6-22,94,72,54,56,48,40,68,45,18,25.10,24.88,10,2,10,0.00
2013-6-23,88,70,52,52,47,41,70,47,27,25.16,24.94,10,2,10,0.00
2013-6-24,94,76,59,59,45,31,62,37,16,25.05,24.88,8,2,8,0.00
2013-6-25,100,80,61,47,38,30,40,24,15,25.12,24.94,12,2,12,0.00
2013-6-26,102,81,59,52,44,36,51,31,13,25.20,25.09,7,1,7,0.00
2013-6-27,102,83,63,54,44,38,49,28,15,25.33,25.17,11,2,11,0.00
2013-6-28,95,76,61,62,54,44,83,48,30,25.35,25.21,13,2,13,0.22
2013-6-29,93,72,57,62,57,52,86,61,35,25.33,25.18,9,1,9,0.00
2013-6-30,85,70,62,59,55,52,76,60,40,25.29,25.23,8,2,8,0.00
2013-7-1,83,70,56,59,53,49,79,58,37,25.37,25.27,10,2,10,0.00
2013-7-2,86,71,53,60,51,45,83,53,29,25.34,25.20,11,2,11,0.00
2013-7-3,92,73,55,56,49,45,73,46,22,25.22,25.02,11,1,11,0.00
2013-7-4,94,76,59,56,49,43,61,40,23,25.12,25.01,14,2,14,0.00
2013-7-5,91,74,63,58,53,46,66,50,33,25.06,24.96,11,1,11,0.00
2013-7-6,96,78,63,57,52,48,66,42,20,25.10,24.98,11,2,11,0.00
2013-7-7,96,80,65,62,54,48,61,43,26,25.18,25.07,9,2,9,0.00
2013-7-8,101,81,62,63,53,41,75,43,15,25.20,25.11,15,2,15,0.00
2013-7-9,105,82,65,57,48,41,58,34,14,25.29,25.20,10,2,10,0.00
2013-7-10,97,79,60,60,52,44,62,42,23,25.33,25.10,8,2,8,0.00
2013-7-11,107,82,61,61,54,46,73,43,16,25.20,24.96,17,2,17,0.03
2013-7-12,100,76,66,62,56,49,82,52,23,25.19,25.05,16,2,16,0.08
2013-7-13,95,73,64,65,59,56,81,65,33,25.28,25.13,9,1,9,0.03
2013-7-14,84,72,59,62,59,54,86,66,42,25.32,25.21,12,2,12,0.00
2013-7-15,84,72,65,67,60,48,88,69,47,25.29,25.19,10,2,10,0.01
2013-7-16,90,72,53,60,51,46,80,51,28,25.29,25.19,9,2,9,0.00
2013-7-17,98,77,55,61,55,48,79,50,27,25.32,25.16,6,1,6,0.00
2013-7-18,97,76,63,62,54,49,68,49,26,25.26,25.15,13,2,13,0.04
2013-7-19,91,75,64,61,57,53,74,54,35,25.28,25.17,12,2,12,0.01
2013-7-20,97,74,57,62,55,49,85,55,30,25.19,25.05,16,2,16,0.05
2013-7-21,95,74,55,63,56,46,83,56,34,25.12,25.00,13,2,13,0.00
2013-7-22,97,80,59,59,53,42,70,43,23,25.12,25.01,11,2,11,0.00
2013-7-23,94,77,61,60,51,37,56,41,27,25.25,25.07,9,2,9,0.00
2013-7-24,86,73,62,63,55,49,72,55,35,25.29,25.13,17,2,17,0.00
2013-7-25,82,66,57,61,55,51,88,69,45,25.33,25.18,11,1,11,0.31
2013-7-26,90,72,56,62,53,46,81,55,29,25.36,25.21,14,2,14,0.00
2013-7-27,79,62,53,58,50,46,79,66,48,25.26,25.18,8,1,8,0.00
2013-8-11,72,68,64,52,50,48,63,53,44,25.27,25.22,5,1,5,0.00
2013-8-12,85,68,55,60,53,48,86,60,34,25.35,25.21,12,1,12,0.52
2013-8-13,82,66,53,60,52,48,85,63,40,25.32,25.22,9,1,9,0.02
2013-8-14,87,69,53,61,51,46,84,57,28,25.31,25.17,8,0,8,0.00
2013-8-15,90,69,52,59,50,44,78,52,28,25.27,25.15,7,1,7,0.00
2013-8-16,94,74,55,58,49,44,71,44,22,25.26,25.17,8,1,8,0.00
2013-8-17,97,76,58,61,49,38,80,45,16,25.25,25.09,7,1,7,0.00
2013-8-18,92,75,57,63,51,41,79,46,23,25.22,25.13,12,2,12,0.00
2013-8-19,101,78,57,61,49,43,70,40,18,25.22,25.09,9,1,9,0.00
2013-8-20,102,81,60,59,46,36,56,33,13,25.15,25.05,11,2,11,0.00
2013-8-21,96,78,67,58,50,43,59,39,23,25.20,25.13,11,2,11,0.00
2013-8-23,92,87,80,62,60,58,49,41,35,25.16,25.07,7,1,7,0.00